sensor_id;sensor_type;location;lat;lon;timestamp;P1;durP1;ratioP1;P2;durP2;ratioP2
40953;SDS011;26686;50.130;8.710;2023-11-19T00:01:50;4.57;;;4.20;;
40953;SDS011;26686;50.130;8.710;2023-11-19T00:06:52;4.65;;;4.25;;
40953;SDS011;26686;50.130;8.710;2023-11-19T00:11:54;5.10;;;4.65;;
40953;SDS011;26686;50.130;8.710;2023-11-19T00:16:55;6.03;;;4.88;;
40953;SDS011;26686;50.130;8.710;2023-11-19T00:21:57;5.80;;;5.18;;
40953;SDS011;26686;50.130;8.710;2023-11-19T00:27:03;5.70;;;4.78;;
40953;SDS011;26686;50.130;8.710;2023-11-19T00:32:05;4.97;;;4.57;;
40953;SDS011;26686;50.130;8.710;2023-11-19T00:37:07;5.45;;;4.95;;
40953;SDS011;26686;50.130;8.710;2023-11-19T00:42:09;5.72;;;5.20;;
40953;SDS011;26686;50.130;8.710;2023-11-19T00:47:11;6.32;;;4.95;;
40953;SDS011;26686;50.130;8.710;2023-11-19T00:52:12;5.97;;;5.07;;
40953;SDS011;26686;50.130;8.710;2023-11-19T00:57:14;6.45;;;5.85;;
40953;SDS011;26686;50.130;8.710;2023-11-19T01:02:15;5.97;;;5.38;;
40953;SDS011;26686;50.130;8.710;2023-11-19T01:07:17;5.68;;;5.18;;
40953;SDS011;26686;50.130;8.710;2023-11-19T01:12:19;5.43;;;4.93;;
40953;SDS011;26686;50.130;8.710;2023-11-19T01:17:20;5.97;;;5.15;;
40953;SDS011;26686;50.130;8.710;2023-11-19T01:22:22;5.05;;;4.50;;
40953;SDS011;26686;50.130;8.710;2023-11-19T01:27:24;5.28;;;4.78;;
40953;SDS011;26686;50.130;8.710;2023-11-19T01:32:26;5.03;;;4.50;;
40953;SDS011;26686;50.130;8.710;2023-11-19T01:37:29;5.43;;;4.60;;
40953;SDS011;26686;50.130;8.710;2023-11-19T01:42:38;5.45;;;4.78;;
40953;SDS011;26686;50.130;8.710;2023-11-19T01:47:40;5.50;;;4.50;;
40953;SDS011;26686;50.130;8.710;2023-11-19T01:52:42;5.03;;;4.15;;
40953;SDS011;26686;50.130;8.710;2023-11-19T01:57:43;4.15;;;3.72;;
40953;SDS011;26686;50.130;8.710;2023-11-19T02:02:46;4.82;;;4.05;;
40953;SDS011;26686;50.130;8.710;2023-11-19T02:07:49;4.03;;;3.67;;
40953;SDS011;26686;50.130;8.710;2023-11-19T02:12:52;3.83;;;3.53;;
40953;SDS011;26686;50.130;8.710;2023-11-19T02:23:26;4.05;;;3.30;;
40953;SDS011;26686;50.130;8.710;2023-11-19T02:28:29;4.10;;;3.70;;
40953;SDS011;26686;50.130;8.710;2023-11-19T02:33:31;3.58;;;3.08;;
40953;SDS011;26686;50.130;8.710;2023-11-19T02:38:35;3.75;;;3.30;;
40953;SDS011;26686;50.130;8.710;2023-11-19T02:43:37;3.00;;;2.80;;
40953;SDS011;26686;50.130;8.710;2023-11-19T02:48:40;3.15;;;2.85;;
40953;SDS011;26686;50.130;8.710;2023-11-19T02:53:43;2.72;;;2.40;;
40953;SDS011;26686;50.130;8.710;2023-11-19T02:58:45;2.47;;;2.28;;
40953;SDS011;26686;50.130;8.710;2023-11-19T03:03:47;3.10;;;2.60;;
40953;SDS011;26686;50.130;8.710;2023-11-19T03:08:51;2.50;;;2.30;;
40953;SDS011;26686;50.130;8.710;2023-11-19T03:13:53;3.05;;;2.53;;
40953;SDS011;26686;50.130;8.710;2023-11-19T03:18:54;2.75;;;2.30;;
40953;SDS011;26686;50.130;8.710;2023-11-19T03:23:56;2.55;;;2.25;;
40953;SDS011;26686;50.130;8.710;2023-11-19T03:29:01;2.40;;;2.20;;
40953;SDS011;26686;50.130;8.710;2023-11-19T03:34:02;2.05;;;1.90;;
40953;SDS011;26686;50.130;8.710;2023-11-19T03:39:04;3.38;;;1.90;;
40953;SDS011;26686;50.130;8.710;2023-11-19T03:44:05;2.72;;;2.35;;
40953;SDS011;26686;50.130;8.710;2023-11-19T03:49:07;3.45;;;2.17;;
40953;SDS011;26686;50.130;8.710;2023-11-19T03:54:08;2.15;;;1.95;;
40953;SDS011;26686;50.130;8.710;2023-11-19T03:59:10;3.05;;;2.50;;
40953;SDS011;26686;50.130;8.710;2023-11-19T04:04:12;2.50;;;2.30;;
40953;SDS011;26686;50.130;8.710;2023-11-19T04:09:13;3.05;;;2.53;;
40953;SDS011;26686;50.130;8.710;2023-11-19T04:14:15;2.20;;;2.00;;
40953;SDS011;26686;50.130;8.710;2023-11-19T04:19:19;1.87;;;1.77;;
40953;SDS011;26686;50.130;8.710;2023-11-19T04:24:21;2.17;;;1.98;;
40953;SDS011;26686;50.130;8.710;2023-11-19T04:29:22;3.53;;;2.13;;
40953;SDS011;26686;50.130;8.710;2023-11-19T04:34:23;1.77;;;1.67;;
40953;SDS011;26686;50.130;8.710;2023-11-19T04:39:25;1.90;;;1.80;;
40953;SDS011;26686;50.130;8.710;2023-11-19T04:44:28;1.90;;;1.52;;
40953;SDS011;26686;50.130;8.710;2023-11-19T04:49:31;2.17;;;1.80;;
40953;SDS011;26686;50.130;8.710;2023-11-19T04:54:32;2.17;;;1.35;;
40953;SDS011;26686;50.130;8.710;2023-11-19T04:59:34;1.95;;;1.80;;
40953;SDS011;26686;50.130;8.710;2023-11-19T05:04:35;1.67;;;1.33;;
40953;SDS011;26686;50.130;8.710;2023-11-19T05:09:37;2.15;;;1.95;;
40953;SDS011;26686;50.130;8.710;2023-11-19T05:14:39;2.22;;;2.03;;
40953;SDS011;26686;50.130;8.710;2023-11-19T05:19:40;2.25;;;2.05;;
40953;SDS011;26686;50.130;8.710;2023-11-19T05:24:41;1.83;;;1.35;;
40953;SDS011;26686;50.130;8.710;2023-11-19T05:29:43;1.83;;;1.73;;
40953;SDS011;26686;50.130;8.710;2023-11-19T05:34:47;2.25;;;1.40;;
40953;SDS011;26686;50.130;8.710;2023-11-19T05:39:51;1.75;;;1.48;;
40953;SDS011;26686;50.130;8.710;2023-11-19T05:44:53;2.42;;;1.58;;
40953;SDS011;26686;50.130;8.710;2023-11-19T05:49:54;2.38;;;1.90;;
40953;SDS011;26686;50.130;8.710;2023-11-19T05:54:56;2.00;;;1.83;;
40953;SDS011;26686;50.130;8.710;2023-11-19T05:59:57;2.83;;;2.20;;
40953;SDS011;26686;50.130;8.710;2023-11-19T06:05:00;2.50;;;2.30;;
40953;SDS011;26686;50.130;8.710;2023-11-19T06:10:02;2.95;;;1.98;;
40953;SDS011;26686;50.130;8.710;2023-11-19T06:15:07;3.13;;;2.40;;
40953;SDS011;26686;50.130;8.710;2023-11-19T06:20:09;2.47;;;1.85;;
40953;SDS011;26686;50.130;8.710;2023-11-19T06:25:13;2.47;;;2.27;;
40953;SDS011;26686;50.130;8.710;2023-11-19T06:30:16;2.50;;;2.30;;
40953;SDS011;26686;50.130;8.710;2023-11-19T06:35:18;2.67;;;2.47;;
40953;SDS011;26686;50.130;8.710;2023-11-19T06:40:22;3.57;;;2.60;;
40953;SDS011;26686;50.130;8.710;2023-11-19T06:45:23;3.78;;;3.08;;
40953;SDS011;26686;50.130;8.710;2023-11-19T06:50:25;3.63;;;2.85;;
40953;SDS011;26686;50.130;8.710;2023-11-19T06:55:26;3.38;;;3.08;;
40953;SDS011;26686;50.130;8.710;2023-11-19T07:00:28;3.05;;;2.47;;
40953;SDS011;26686;50.130;8.710;2023-11-19T07:05:30;2.65;;;2.25;;
40953;SDS011;26686;50.130;8.710;2023-11-19T07:10:32;3.35;;;3.05;;
40953;SDS011;26686;50.130;8.710;2023-11-19T07:15:35;2.72;;;2.33;;
40953;SDS011;26686;50.130;8.710;2023-11-19T07:20:37;2.15;;;1.98;;
40953;SDS011;26686;50.130;8.710;2023-11-19T07:25:39;2.13;;;1.90;;
40953;SDS011;26686;50.130;8.710;2023-11-19T07:30:41;2.55;;;2.35;;
40953;SDS011;26686;50.130;8.710;2023-11-19T07:35:43;2.65;;;2.28;;
40953;SDS011;26686;50.130;8.710;2023-11-19T07:40:45;2.38;;;1.80;;
40953;SDS011;26686;50.130;8.710;2023-11-19T07:45:49;2.75;;;1.98;;
40953;SDS011;26686;50.130;8.710;2023-11-19T07:50:51;3.17;;;2.08;;
40953;SDS011;26686;50.130;8.710;2023-11-19T07:55:53;3.28;;;2.08;;
40953;SDS011;26686;50.130;8.710;2023-11-19T08:00:55;2.72;;;2.03;;
40953;SDS011;26686;50.130;8.710;2023-11-19T08:05:57;2.30;;;1.80;;
40953;SDS011;26686;50.130;8.710;2023-11-19T08:10:58;2.08;;;1.98;;
40953;SDS011;26686;50.130;8.710;2023-11-19T08:16:01;2.05;;;1.85;;
40953;SDS011;26686;50.130;8.710;2023-11-19T08:21:04;3.10;;;2.83;;
40953;SDS011;26686;50.130;8.710;2023-11-19T08:26:06;2.47;;;2.08;;
40953;SDS011;26686;50.130;8.710;2023-11-19T08:31:08;2.63;;;2.42;;
40953;SDS011;26686;50.130;8.710;2023-11-19T08:36:16;2.80;;;2.60;;
40953;SDS011;26686;50.130;8.710;2023-11-19T08:41:19;3.28;;;2.85;;
40953;SDS011;26686;50.130;8.710;2023-11-19T08:46:25;2.80;;;2.60;;
40953;SDS011;26686;50.130;8.710;2023-11-19T08:51:27;2.42;;;2.22;;
40953;SDS011;26686;50.130;8.710;2023-11-19T08:56:30;4.13;;;3.10;;
40953;SDS011;26686;50.130;8.710;2023-11-19T09:01:34;3.13;;;2.83;;
40953;SDS011;26686;50.130;8.710;2023-11-19T09:06:36;3.47;;;2.88;;
40953;SDS011;26686;50.130;8.710;2023-11-19T09:11:37;3.50;;;3.10;;
40953;SDS011;26686;50.130;8.710;2023-11-19T09:16:39;4.13;;;3.30;;
40953;SDS011;26686;50.130;8.710;2023-11-19T09:21:41;3.78;;;3.20;;
40953;SDS011;26686;50.130;8.710;2023-11-19T09:26:42;3.10;;;2.80;;
40953;SDS011;26686;50.130;8.710;2023-11-19T09:31:43;3.10;;;2.65;;
40953;SDS011;26686;50.130;8.710;2023-11-19T09:36:45;2.75;;;2.55;;
40953;SDS011;26686;50.130;8.710;2023-11-19T09:41:47;4.15;;;2.80;;
40953;SDS011;26686;50.130;8.710;2023-11-19T09:46:49;3.65;;;2.50;;
40953;SDS011;26686;50.130;8.710;2023-11-19T09:51:53;4.95;;;2.60;;
40953;SDS011;26686;50.130;8.710;2023-11-19T09:56:55;2.30;;;1.92;;
40953;SDS011;26686;50.130;8.710;2023-11-19T10:02:06;2.80;;;1.40;;
40953;SDS011;26686;50.130;8.710;2023-11-19T10:07:10;1.70;;;1.45;;
40953;SDS011;26686;50.130;8.710;2023-11-19T10:12:11;2.50;;;1.50;;
40953;SDS011;26686;50.130;8.710;2023-11-19T10:17:13;4.43;;;1.45;;
40953;SDS011;26686;50.130;8.710;2023-11-19T10:22:14;2.85;;;1.10;;
40953;SDS011;26686;50.130;8.710;2023-11-19T10:27:18;2.13;;;1.00;;
40953;SDS011;26686;50.130;8.710;2023-11-19T10:32:19;3.25;;;1.13;;
40953;SDS011;26686;50.130;8.710;2023-11-19T10:37:30;3.33;;;1.20;;
40953;SDS011;26686;50.130;8.710;2023-11-19T10:42:33;3.38;;;1.35;;
40953;SDS011;26686;50.130;8.710;2023-11-19T10:47:35;1.65;;;0.60;;
40953;SDS011;26686;50.130;8.710;2023-11-19T10:52:39;3.60;;;0.95;;
40953;SDS011;26686;50.130;8.710;2023-11-19T10:57:42;5.30;;;1.27;;
40953;SDS011;26686;50.130;8.710;2023-11-19T11:02:45;3.70;;;1.00;;
40953;SDS011;26686;50.130;8.710;2023-11-19T11:07:52;4.97;;;1.17;;
40953;SDS011;26686;50.130;8.710;2023-11-19T11:12:59;4.10;;;1.05;;
40953;SDS011;26686;50.130;8.710;2023-11-19T11:18:03;2.70;;;0.93;;
40953;SDS011;26686;50.130;8.710;2023-11-19T11:28:58;6.38;;;1.30;;
40953;SDS011;26686;50.130;8.710;2023-11-19T11:34:08;5.38;;;1.25;;
40953;SDS011;26686;50.130;8.710;2023-11-19T11:39:18;5.78;;;1.27;;
40953;SDS011;26686;50.130;8.710;2023-11-19T11:50:05;6.95;;;1.42;;
40953;SDS011;26686;50.130;8.710;2023-11-19T11:55:13;6.03;;;1.80;;
40953;SDS011;26686;50.130;8.710;2023-11-19T12:00:21;6.15;;;1.40;;
40953;SDS011;26686;50.130;8.710;2023-11-19T12:05:24;7.60;;;1.92;;
40953;SDS011;26686;50.130;8.710;2023-11-19T12:10:25;7.10;;;2.15;;
40953;SDS011;26686;50.130;8.710;2023-11-19T12:15:29;7.47;;;1.65;;
40953;SDS011;26686;50.130;8.710;2023-11-19T12:20:32;7.22;;;1.58;;
40953;SDS011;26686;50.130;8.710;2023-11-19T12:25:36;6.35;;;1.77;;
40953;SDS011;26686;50.130;8.710;2023-11-19T12:30:38;4.47;;;1.45;;
40953;SDS011;26686;50.130;8.710;2023-11-19T12:35:42;6.90;;;1.58;;
40953;SDS011;26686;50.130;8.710;2023-11-19T12:40:45;6.47;;;1.60;;
40953;SDS011;26686;50.130;8.710;2023-11-19T12:45:49;4.75;;;1.50;;
40953;SDS011;26686;50.130;8.710;2023-11-19T12:55:59;4.40;;;1.17;;
40953;SDS011;26686;50.130;8.710;2023-11-19T13:01:09;5.85;;;1.38;;
40953;SDS011;26686;50.130;8.710;2023-11-19T13:06:12;5.43;;;1.27;;
40953;SDS011;26686;50.130;8.710;2023-11-19T13:11:29;6.40;;;1.67;;
40953;SDS011;26686;50.130;8.710;2023-11-19T13:16:36;4.55;;;0.98;;
40953;SDS011;26686;50.130;8.710;2023-11-19T13:21:38;3.63;;;1.40;;
40953;SDS011;26686;50.130;8.710;2023-11-19T13:26:41;4.17;;;1.77;;
40953;SDS011;26686;50.130;8.710;2023-11-19T13:31:43;5.63;;;1.33;;
40953;SDS011;26686;50.130;8.710;2023-11-19T13:36:44;4.47;;;0.90;;
40953;SDS011;26686;50.130;8.710;2023-11-19T13:41:46;6.68;;;1.73;;
40953;SDS011;26686;50.130;8.710;2023-11-19T13:46:47;4.95;;;1.25;;
40953;SDS011;26686;50.130;8.710;2023-11-19T13:51:49;5.47;;;1.73;;
40953;SDS011;26686;50.130;8.710;2023-11-19T13:56:54;5.00;;;1.50;;
40953;SDS011;26686;50.130;8.710;2023-11-19T14:01:57;4.43;;;1.23;;
40953;SDS011;26686;50.130;8.710;2023-11-19T14:06:58;6.35;;;1.20;;
40953;SDS011;26686;50.130;8.710;2023-11-19T14:12:02;4.10;;;1.52;;
40953;SDS011;26686;50.130;8.710;2023-11-19T14:17:04;8.20;;;1.73;;
40953;SDS011;26686;50.130;8.710;2023-11-19T14:22:09;5.95;;;1.80;;
40953;SDS011;26686;50.130;8.710;2023-11-19T14:27:11;4.30;;;1.02;;
40953;SDS011;26686;50.130;8.710;2023-11-19T14:32:13;5.63;;;1.60;;
40953;SDS011;26686;50.130;8.710;2023-11-19T14:37:15;7.15;;;1.67;;
40953;SDS011;26686;50.130;8.710;2023-11-19T14:42:19;5.40;;;1.52;;
40953;SDS011;26686;50.130;8.710;2023-11-19T14:47:21;6.47;;;1.35;;
40953;SDS011;26686;50.130;8.710;2023-11-19T14:52:23;5.97;;;1.23;;
40953;SDS011;26686;50.130;8.710;2023-11-19T14:57:24;5.63;;;1.90;;
40953;SDS011;26686;50.130;8.710;2023-11-19T15:02:26;5.05;;;1.48;;
40953;SDS011;26686;50.130;8.710;2023-11-19T15:07:28;5.53;;;1.75;;
40953;SDS011;26686;50.130;8.710;2023-11-19T15:12:29;7.72;;;1.75;;
40953;SDS011;26686;50.130;8.710;2023-11-19T15:17:31;6.88;;;2.15;;
40953;SDS011;26686;50.130;8.710;2023-11-19T15:22:33;8.20;;;2.17;;
40953;SDS011;26686;50.130;8.710;2023-11-19T15:27:35;4.25;;;1.52;;
40953;SDS011;26686;50.130;8.710;2023-11-19T15:32:36;5.45;;;1.95;;
40953;SDS011;26686;50.130;8.710;2023-11-19T15:37:38;7.43;;;2.10;;
40953;SDS011;26686;50.130;8.710;2023-11-19T15:42:45;7.05;;;1.17;;
40953;SDS011;26686;50.130;8.710;2023-11-19T15:47:48;7.30;;;1.30;;
40953;SDS011;26686;50.130;8.710;2023-11-19T15:52:50;7.13;;;1.70;;
40953;SDS011;26686;50.130;8.710;2023-11-19T15:57:52;5.22;;;2.28;;
40953;SDS011;26686;50.130;8.710;2023-11-19T16:02:53;5.07;;;1.50;;
40953;SDS011;26686;50.130;8.710;2023-11-19T16:07:57;8.20;;;1.67;;
40953;SDS011;26686;50.130;8.710;2023-11-19T16:12:58;6.40;;;2.17;;
40953;SDS011;26686;50.130;8.710;2023-11-19T16:18:00;4.93;;;1.52;;
40953;SDS011;26686;50.130;8.710;2023-11-19T16:23:02;4.55;;;1.40;;
40953;SDS011;26686;50.130;8.710;2023-11-19T16:28:05;7.72;;;1.88;;
40953;SDS011;26686;50.130;8.710;2023-11-19T16:33:11;8.68;;;2.30;;
40953;SDS011;26686;50.130;8.710;2023-11-19T16:38:26;9.30;;;3.20;;
40953;SDS011;26686;50.130;8.710;2023-11-19T16:43:28;6.13;;;2.80;;
40953;SDS011;26686;50.130;8.710;2023-11-19T16:48:30;8.65;;;2.30;;
40953;SDS011;26686;50.130;8.710;2023-11-19T16:53:32;10.95;;;3.30;;
40953;SDS011;26686;50.130;8.710;2023-11-19T16:58:33;9.13;;;2.80;;
40953;SDS011;26686;50.130;8.710;2023-11-19T17:03:35;6.72;;;2.42;;
40953;SDS011;26686;50.130;8.710;2023-11-19T17:08:37;9.75;;;3.40;;
40953;SDS011;26686;50.130;8.710;2023-11-19T17:13:39;4.68;;;1.88;;
40953;SDS011;26686;50.130;8.710;2023-11-19T17:18:40;6.88;;;1.90;;
40953;SDS011;26686;50.130;8.710;2023-11-19T17:23:43;4.20;;;1.80;;
40953;SDS011;26686;50.130;8.710;2023-11-19T17:28:44;5.80;;;1.88;;
40953;SDS011;26686;50.130;8.710;2023-11-19T17:33:49;7.22;;;2.97;;
40953;SDS011;26686;50.130;8.710;2023-11-19T17:38:50;5.72;;;2.17;;
40953;SDS011;26686;50.130;8.710;2023-11-19T17:43:52;6.82;;;1.80;;
40953;SDS011;26686;50.130;8.710;2023-11-19T17:48:55;6.80;;;2.33;;
40953;SDS011;26686;50.130;8.710;2023-11-19T17:53:56;6.20;;;1.80;;
40953;SDS011;26686;50.130;8.710;2023-11-19T17:58:57;4.93;;;1.65;;
40953;SDS011;26686;50.130;8.710;2023-11-19T18:03:59;6.85;;;2.15;;
40953;SDS011;26686;50.130;8.710;2023-11-19T18:09:00;5.32;;;1.95;;
40953;SDS011;26686;50.130;8.710;2023-11-19T18:14:03;7.53;;;2.00;;
40953;SDS011;26686;50.130;8.710;2023-11-19T18:19:06;9.77;;;2.47;;
40953;SDS011;26686;50.130;8.710;2023-11-19T18:24:08;6.07;;;2.40;;
40953;SDS011;26686;50.130;8.710;2023-11-19T18:29:09;6.68;;;2.90;;
40953;SDS011;26686;50.130;8.710;2023-11-19T18:34:12;8.30;;;2.95;;
40953;SDS011;26686;50.130;8.710;2023-11-19T18:39:15;6.70;;;2.38;;
40953;SDS011;26686;50.130;8.710;2023-11-19T18:44:17;7.97;;;2.15;;
40953;SDS011;26686;50.130;8.710;2023-11-19T18:49:18;8.80;;;2.25;;
40953;SDS011;26686;50.130;8.710;2023-11-19T18:54:21;5.57;;;2.00;;
40953;SDS011;26686;50.130;8.710;2023-11-19T18:59:24;10.67;;;3.30;;
40953;SDS011;26686;50.130;8.710;2023-11-19T19:04:25;8.07;;;2.15;;
40953;SDS011;26686;50.130;8.710;2023-11-19T19:09:30;8.93;;;2.60;;
40953;SDS011;26686;50.130;8.710;2023-11-19T19:14:31;13.55;;;3.55;;
40953;SDS011;26686;50.130;8.710;2023-11-19T19:19:34;10.88;;;2.85;;
40953;SDS011;26686;50.130;8.710;2023-11-19T19:24:35;7.65;;;2.88;;
40953;SDS011;26686;50.130;8.710;2023-11-19T19:29:40;7.72;;;2.78;;
40953;SDS011;26686;50.130;8.710;2023-11-19T19:39:51;6.63;;;2.35;;
40953;SDS011;26686;50.130;8.710;2023-11-19T19:44:52;11.25;;;2.90;;
40953;SDS011;26686;50.130;8.710;2023-11-19T19:49:56;6.70;;;2.60;;
40953;SDS011;26686;50.130;8.710;2023-11-19T19:54:59;9.55;;;3.05;;
40953;SDS011;26686;50.130;8.710;2023-11-19T20:00:01;4.68;;;1.95;;
40953;SDS011;26686;50.130;8.710;2023-11-19T20:05:15;8.10;;;2.80;;
40953;SDS011;26686;50.130;8.710;2023-11-19T20:10:16;10.23;;;2.40;;
40953;SDS011;26686;50.130;8.710;2023-11-19T20:15:18;7.97;;;2.03;;
40953;SDS011;26686;50.130;8.710;2023-11-19T20:20:23;5.35;;;1.90;;
40953;SDS011;26686;50.130;8.710;2023-11-19T20:25:24;8.15;;;2.53;;
40953;SDS011;26686;50.130;8.710;2023-11-19T20:30:26;7.72;;;2.67;;
40953;SDS011;26686;50.130;8.710;2023-11-19T20:35:27;8.30;;;2.40;;
40953;SDS011;26686;50.130;8.710;2023-11-19T20:40:29;7.35;;;1.90;;
40953;SDS011;26686;50.130;8.710;2023-11-19T20:45:30;7.25;;;2.40;;
40953;SDS011;26686;50.130;8.710;2023-11-19T20:50:32;5.03;;;2.00;;
40953;SDS011;26686;50.130;8.710;2023-11-19T20:55:35;7.05;;;2.28;;
40953;SDS011;26686;50.130;8.710;2023-11-19T21:00:38;9.35;;;2.22;;
40953;SDS011;26686;50.130;8.710;2023-11-19T21:05:43;10.18;;;2.25;;
40953;SDS011;26686;50.130;8.710;2023-11-19T21:10:46;7.15;;;2.17;;
40953;SDS011;26686;50.130;8.710;2023-11-19T21:15:49;7.90;;;1.95;;
40953;SDS011;26686;50.130;8.710;2023-11-19T21:20:59;6.50;;;1.92;;
40953;SDS011;26686;50.130;8.710;2023-11-19T21:26:02;8.95;;;2.42;;
40953;SDS011;26686;50.130;8.710;2023-11-19T21:31:04;10.10;;;2.80;;
40953;SDS011;26686;50.130;8.710;2023-11-19T21:36:06;13.75;;;2.80;;
40953;SDS011;26686;50.130;8.710;2023-11-19T21:41:07;8.18;;;2.78;;
40953;SDS011;26686;50.130;8.710;2023-11-19T21:46:09;11.68;;;3.05;;
40953;SDS011;26686;50.130;8.710;2023-11-19T21:51:10;8.77;;;2.78;;
40953;SDS011;26686;50.130;8.710;2023-11-19T21:56:13;7.75;;;1.85;;
40953;SDS011;26686;50.130;8.710;2023-11-19T22:01:14;9.95;;;1.98;;
40953;SDS011;26686;50.130;8.710;2023-11-19T22:06:17;9.55;;;2.30;;
40953;SDS011;26686;50.130;8.710;2023-11-19T22:11:20;8.20;;;2.55;;
40953;SDS011;26686;50.130;8.710;2023-11-19T22:16:25;10.05;;;2.60;;
40953;SDS011;26686;50.130;8.710;2023-11-19T22:21:26;6.35;;;2.38;;
40953;SDS011;26686;50.130;8.710;2023-11-19T22:26:29;9.50;;;2.17;;
40953;SDS011;26686;50.130;8.710;2023-11-19T22:31:32;7.90;;;2.45;;
40953;SDS011;26686;50.130;8.710;2023-11-19T22:36:35;13.23;;;2.23;;
40953;SDS011;26686;50.130;8.710;2023-11-19T22:41:37;8.27;;;2.33;;
40953;SDS011;26686;50.130;8.710;2023-11-19T22:46:39;9.88;;;2.15;;
40953;SDS011;26686;50.130;8.710;2023-11-19T22:51:40;14.18;;;2.78;;
40953;SDS011;26686;50.130;8.710;2023-11-19T22:56:42;10.63;;;3.10;;
40953;SDS011;26686;50.130;8.710;2023-11-19T23:01:43;10.50;;;3.03;;
40953;SDS011;26686;50.130;8.710;2023-11-19T23:06:46;6.97;;;2.42;;
40953;SDS011;26686;50.130;8.710;2023-11-19T23:11:47;7.10;;;2.38;;
40953;SDS011;26686;50.130;8.710;2023-11-19T23:16:48;7.43;;;2.38;;
40953;SDS011;26686;50.130;8.710;2023-11-19T23:21:51;9.75;;;2.83;;
40953;SDS011;26686;50.130;8.710;2023-11-19T23:26:52;10.50;;;2.30;;
40953;SDS011;26686;50.130;8.710;2023-11-19T23:31:54;9.45;;;3.00;;
40953;SDS011;26686;50.130;8.710;2023-11-19T23:36:56;8.85;;;2.65;;
40953;SDS011;26686;50.130;8.710;2023-11-19T23:41:57;6.13;;;2.25;;
40953;SDS011;26686;50.130;8.710;2023-11-19T23:46:59;8.23;;;2.13;;
40953;SDS011;26686;50.130;8.710;2023-11-19T23:52:03;7.80;;;2.30;;
40953;SDS011;26686;50.130;8.710;2023-11-19T23:57:06;9.65;;;2.50;;
